createdAt,value
2018-11-11T00:02:18.310Z,14.93
2018-11-11T00:04:46.414Z,14.87
2018-11-11T00:07:14.530Z,14.73
2018-11-11T00:09:42.737Z,15.03
2018-11-11T00:12:10.883Z,15.30
2018-11-11T00:14:39.007Z,14.70
2018-11-11T00:17:07.131Z,14.33
2018-11-11T00:19:35.293Z,14.43
2018-11-11T00:22:03.433Z,14.47
2018-11-11T00:24:31.588Z,13.40
2018-11-11T00:26:59.931Z,15.53
2018-11-11T00:29:28.052Z,14.57
2018-11-11T00:31:56.211Z,14.00
2018-11-11T00:34:24.315Z,14.13
2018-11-11T00:36:52.494Z,12.23
2018-11-11T00:39:20.676Z,13.23
2018-11-11T00:41:48.807Z,13.60
2018-11-11T00:44:16.987Z,13.33
2018-11-11T00:46:45.114Z,13.63
2018-11-11T00:49:13.634Z,13.00
2018-11-11T00:51:41.755Z,12.47
2018-11-11T00:54:09.891Z,13.53
2018-11-11T00:56:37.995Z,12.70
2018-11-11T00:59:06.118Z,12.93
2018-11-11T01:01:34.309Z,12.30
2018-11-11T01:04:02.421Z,12.70
2018-11-11T01:06:30.608Z,12.80
2018-11-11T01:08:58.731Z,13.00
2018-11-11T01:11:26.891Z,12.17
2018-11-11T01:13:55.059Z,11.90
2018-11-11T01:16:23.209Z,11.27
2018-11-11T01:18:51.338Z,11.37
2018-11-11T01:21:19.458Z,10.70
2018-11-11T01:23:47.579Z,11.27
2018-11-11T01:26:15.660Z,11.17
2018-11-11T01:28:43.789Z,9.80
2018-11-11T01:31:11.974Z,9.33
2018-11-11T01:33:40.451Z,9.27
2018-11-11T01:36:08.527Z,9.27
2018-11-11T01:38:36.685Z,8.63
2018-11-11T01:41:04.850Z,8.03
2018-11-11T01:43:32.941Z,7.53
2018-11-11T01:46:01.034Z,8.17
2018-11-11T01:48:29.174Z,7.23
2018-11-11T01:50:57.375Z,7.60
2018-11-11T01:53:25.550Z,7.43
2018-11-11T01:55:53.710Z,6.40
2018-11-11T01:58:21.794Z,6.67
2018-11-11T02:00:49.964Z,6.73
2018-11-11T02:03:18.066Z,6.20
2018-11-11T02:05:46.194Z,6.67
2018-11-11T02:08:14.287Z,6.33
2018-11-11T02:10:42.387Z,6.03
2018-11-11T02:13:10.518Z,6.93
2018-11-11T02:15:38.618Z,6.40
2018-11-11T02:18:06.786Z,6.43
2018-11-11T02:20:34.882Z,6.17
2018-11-11T02:23:03.017Z,6.57
2018-11-11T02:25:31.111Z,6.10
2018-11-11T02:27:59.281Z,6.03
2018-11-11T02:30:27.437Z,5.70
2018-11-11T02:32:55.514Z,5.73
2018-11-11T02:35:23.683Z,5.83
2018-11-11T02:37:51.772Z,6.03
2018-11-11T02:40:20.342Z,5.03
2018-11-11T02:42:50.651Z,6.20
2018-11-11T02:45:19.853Z,5.47
2018-11-11T02:47:48.038Z,5.40
2018-11-11T02:50:17.315Z,5.73
2018-11-11T02:52:46.111Z,5.60
2018-11-11T02:55:14.619Z,5.53
2018-11-11T02:57:43.295Z,4.70
2018-11-11T03:00:14.891Z,5.30
2018-11-11T03:02:43.728Z,4.47
2018-11-11T03:05:13.019Z,4.47
2018-11-11T03:07:41.123Z,5.33
2018-11-11T03:10:10.302Z,5.83
2018-11-11T03:12:38.782Z,4.90
2018-11-11T03:15:07.194Z,5.10
2018-11-11T03:17:35.369Z,6.00
2018-11-11T03:20:03.699Z,5.40
2018-11-11T03:22:31.978Z,5.17
2018-11-11T03:25:00.083Z,5.53
2018-11-11T03:27:28.177Z,4.70
2018-11-11T03:29:56.287Z,5.30
2018-11-11T03:32:24.373Z,4.50
2018-11-11T03:34:52.559Z,4.90
2018-11-11T03:37:20.820Z,4.37
2018-11-11T03:39:49.120Z,4.83
2018-11-11T03:42:17.272Z,4.40
2018-11-11T03:44:45.385Z,3.90
2018-11-11T03:47:13.482Z,4.43
2018-11-11T03:49:41.623Z,3.70
2018-11-11T03:52:09.769Z,3.70
2018-11-11T03:54:37.864Z,4.73
2018-11-11T03:57:06.006Z,4.40
2018-11-11T03:59:34.192Z,3.60
2018-11-11T04:02:02.354Z,4.20
2018-11-11T04:04:30.428Z,4.40
2018-11-11T04:06:58.513Z,4.37
2018-11-11T04:09:26.587Z,4.43
2018-11-11T04:11:54.844Z,4.20
2018-11-11T04:14:23.042Z,3.53
2018-11-11T04:16:51.135Z,3.63
2018-11-11T04:19:19.370Z,3.97
2018-11-11T04:21:47.592Z,4.17
2018-11-11T04:24:15.703Z,4.50
2018-11-11T04:26:43.828Z,3.90
2018-11-11T04:29:11.980Z,4.27
2018-11-11T04:31:40.079Z,4.20
2018-11-11T04:34:08.208Z,4.13
2018-11-11T04:36:36.315Z,4.17
2018-11-11T04:39:06.126Z,4.83
2018-11-11T04:41:34.211Z,4.13
2018-11-11T04:44:02.344Z,4.23
2018-11-11T04:46:30.451Z,4.40
2018-11-11T04:48:58.576Z,4.00
2018-11-11T04:51:26.763Z,3.80
2018-11-11T04:53:54.842Z,4.50
2018-11-11T04:56:22.927Z,3.97
2018-11-11T04:58:51.071Z,4.10
2018-11-11T05:01:19.250Z,4.00
2018-11-11T05:03:47.335Z,3.87
2018-11-11T05:06:15.431Z,3.63
2018-11-11T05:08:43.555Z,3.90
2018-11-11T05:11:11.663Z,4.43
2018-11-11T05:13:39.740Z,3.87
2018-11-11T05:16:07.820Z,3.97
2018-11-11T05:18:35.900Z,4.30
2018-11-11T05:21:03.981Z,4.37
2018-11-11T05:23:32.096Z,4.10
2018-11-11T05:26:00.190Z,4.13
2018-11-11T05:28:28.275Z,3.97
2018-11-11T05:30:56.458Z,4.63
2018-11-11T05:33:24.513Z,3.73
2018-11-11T05:35:52.659Z,4.13
2018-11-11T05:38:20.739Z,4.43
2018-11-11T05:40:48.911Z,4.43
2018-11-11T05:43:17.084Z,4.20
2018-11-11T05:45:45.173Z,5.03
2018-11-11T05:48:13.330Z,4.50
2018-11-11T05:50:41.424Z,4.77
2018-11-11T05:53:09.571Z,5.23
2018-11-11T05:55:37.655Z,5.07
2018-11-11T05:58:05.818Z,5.80
2018-11-11T06:00:33.956Z,4.70
2018-11-11T06:03:02.038Z,4.83
2018-11-11T06:05:30.131Z,5.03
2018-11-11T06:07:58.298Z,5.17
2018-11-11T06:10:26.383Z,5.07
2018-11-11T06:12:54.462Z,5.00
2018-11-11T06:15:22.550Z,5.50
2018-11-11T06:17:50.710Z,5.50
2018-11-11T06:20:18.812Z,5.30
2018-11-11T06:22:46.920Z,5.50
2018-11-11T06:25:15.120Z,5.23
2018-11-11T06:27:43.222Z,6.03
2018-11-11T06:30:12.063Z,4.37
2018-11-11T06:32:40.151Z,4.40
2018-11-11T06:35:08.238Z,4.67
2018-11-11T06:37:36.331Z,4.63
2018-11-11T06:40:04.974Z,4.30
2018-11-11T06:42:33.154Z,4.07
2018-11-11T06:45:01.234Z,3.60
2018-11-11T06:47:29.390Z,3.90
2018-11-11T06:49:57.473Z,4.23
2018-11-11T06:52:25.552Z,4.03
2018-11-11T06:54:53.701Z,3.70
2018-11-11T06:57:21.798Z,4.00
2018-11-11T06:59:49.954Z,3.33
2018-11-11T07:02:18.214Z,3.40
2018-11-11T07:04:46.418Z,4.20
2018-11-11T07:07:14.502Z,3.60
2018-11-11T07:09:42.635Z,3.57
2018-11-11T07:12:10.817Z,3.73
2018-11-11T07:14:39.082Z,3.70
2018-11-11T07:17:07.379Z,3.10
2018-11-11T07:19:35.535Z,3.20
2018-11-11T07:22:03.729Z,3.20
2018-11-11T07:24:31.831Z,3.53
2018-11-11T07:26:59.977Z,3.73
2018-11-11T07:29:28.470Z,3.53
2018-11-11T07:31:56.619Z,4.40
2018-11-11T07:34:24.732Z,3.40
2018-11-11T07:36:52.863Z,3.77
2018-11-11T07:39:21.057Z,3.97
2018-11-11T07:41:49.157Z,3.93
2018-11-11T07:44:17.309Z,4.00
2018-11-11T07:46:45.393Z,4.13
2018-11-11T07:49:13.543Z,3.70
2018-11-11T07:51:42.227Z,3.40
2018-11-11T07:54:10.344Z,4.00
2018-11-11T07:56:38.474Z,4.30
2018-11-11T07:59:06.657Z,3.90
2018-11-11T08:01:34.815Z,3.90
2018-11-11T08:04:03.089Z,3.47
2018-11-11T08:06:31.204Z,3.70
2018-11-11T08:08:59.335Z,4.10
2018-11-11T08:11:32.986Z,3.70
2018-11-11T08:14:01.145Z,3.77
2018-11-11T08:16:29.353Z,3.90
2018-11-11T08:18:57.471Z,3.47
2018-11-11T08:21:25.631Z,4.00
2018-11-11T08:23:53.837Z,3.23
2018-11-11T08:26:21.997Z,4.33
2018-11-11T08:28:50.108Z,3.60
2018-11-11T08:31:18.227Z,4.10
2018-11-11T08:33:46.398Z,4.40
2018-11-11T08:36:14.494Z,3.67
2018-11-11T08:38:42.635Z,3.50
2018-11-11T08:41:10.755Z,3.70
2018-11-11T08:43:38.864Z,4.03
2018-11-11T08:46:06.995Z,3.63
2018-11-11T08:48:35.122Z,3.90
2018-11-11T08:51:03.248Z,3.80
2018-11-11T08:53:31.358Z,3.50
2018-11-11T08:55:59.499Z,3.50
2018-11-11T08:58:27.663Z,3.40
2018-11-11T09:00:55.776Z,4.00
2018-11-11T09:03:23.896Z,3.53
2018-11-11T09:05:52.940Z,3.90
2018-11-11T09:08:21.966Z,3.50
2018-11-11T09:10:52.138Z,3.93
2018-11-11T09:13:20.294Z,3.53
2018-11-11T09:15:49.543Z,3.53
2018-11-11T09:18:17.738Z,3.37
2018-11-11T09:20:45.970Z,3.97
2018-11-11T09:23:20.163Z,3.33
2018-11-11T09:25:49.138Z,3.73
2018-11-11T09:28:23.468Z,3.50
2018-11-11T09:30:53.677Z,3.60
2018-11-11T09:33:21.828Z,3.40
2018-11-11T09:35:49.931Z,3.97
2018-11-11T09:38:18.903Z,3.60
2018-11-11T09:42:16.735Z,3.57
2018-11-11T09:44:44.880Z,3.23
2018-11-11T09:47:17.458Z,3.30
2018-11-11T09:49:45.994Z,3.17
2018-11-11T09:52:14.133Z,3.50
2018-11-11T09:54:42.298Z,3.43
2018-11-11T09:57:10.484Z,2.90
2018-11-11T09:59:38.726Z,3.23
2018-11-11T10:02:06.947Z,3.63
2018-11-11T10:04:40.736Z,3.60
2018-11-11T10:07:17.715Z,3.40
2018-11-11T10:09:56.175Z,4.20
2018-11-11T10:12:35.107Z,3.70
2018-11-11T10:15:08.855Z,3.90
2018-11-11T10:18:18.458Z,3.87
2018-11-11T10:21:00.986Z,3.23
2018-11-11T10:23:36.014Z,3.67
2018-11-11T10:26:28.028Z,3.63
2018-11-11T10:29:03.064Z,3.37
2018-11-11T10:32:06.990Z,3.33
2018-11-11T10:34:40.272Z,3.77
2018-11-11T10:37:13.560Z,3.30
2018-11-11T10:39:45.229Z,3.23
2018-11-11T10:42:18.127Z,3.27
2018-11-11T10:45:05.547Z,3.00
2018-11-11T10:47:44.566Z,3.33
2018-11-11T10:50:18.682Z,3.20
2018-11-11T10:52:46.841Z,3.83
2018-11-11T10:55:15.000Z,4.17
2018-11-11T10:57:43.075Z,3.50
2018-11-11T11:00:16.551Z,3.27
2018-11-11T11:02:50.080Z,3.53
2018-11-11T11:05:18.195Z,3.37
2018-11-11T11:07:46.308Z,3.27
2018-11-11T11:10:14.413Z,3.23
2018-11-11T11:12:42.568Z,3.60
2018-11-11T11:15:11.159Z,3.53
2018-11-11T11:17:39.527Z,3.70
2018-11-11T11:20:07.662Z,2.83
2018-11-11T11:22:35.767Z,3.00
2018-11-11T11:25:04.162Z,3.27
2018-11-11T11:27:34.850Z,2.80
2018-11-11T11:30:02.948Z,3.03
2018-11-11T11:32:31.056Z,3.07
2018-11-11T11:34:59.179Z,3.27
2018-11-11T11:37:27.304Z,3.20
2018-11-11T11:39:55.442Z,3.00
2018-11-11T11:42:24.106Z,2.90
2018-11-11T11:44:52.199Z,3.30
2018-11-11T11:47:20.418Z,3.00
2018-11-11T11:49:48.871Z,3.20
2018-11-11T11:52:16.946Z,3.03
2018-11-11T11:54:45.090Z,3.43
2018-11-11T11:57:13.275Z,3.37
2018-11-11T11:59:41.395Z,3.70
2018-11-11T12:02:09.665Z,2.80
2018-11-11T12:04:37.748Z,3.50
2018-11-11T12:07:05.851Z,3.40
2018-11-11T12:09:33.952Z,3.27
2018-11-11T12:12:02.103Z,3.93
2018-11-11T12:14:30.212Z,3.43
2018-11-11T12:16:58.389Z,3.50
2018-11-11T12:19:26.521Z,3.47
2018-11-11T12:21:54.825Z,3.63
2018-11-11T12:24:22.971Z,3.80
2018-11-11T12:26:51.071Z,3.73
2018-11-11T12:29:19.180Z,4.17
2018-11-11T12:31:47.311Z,3.33
2018-11-11T12:34:16.307Z,3.40
2018-11-11T12:36:45.131Z,3.43
2018-11-11T12:39:14.147Z,3.73
2018-11-11T12:41:42.241Z,3.57
2018-11-11T12:44:10.942Z,3.23
2018-11-11T12:46:39.153Z,3.40
2018-11-11T12:49:07.343Z,4.03
2018-11-11T12:51:35.500Z,3.40
2018-11-11T12:54:03.654Z,4.23
2018-11-11T12:56:31.764Z,3.40
2018-11-11T12:58:59.891Z,3.93
2018-11-11T13:01:28.190Z,3.80
2018-11-11T13:03:56.305Z,4.10
2018-11-11T13:06:24.900Z,3.50
2018-11-11T13:08:53.015Z,4.03
2018-11-11T13:11:21.233Z,3.60
2018-11-11T13:13:49.450Z,3.70
2018-11-11T13:16:17.562Z,3.27
2018-11-11T13:18:45.667Z,2.87
2018-11-11T13:21:13.779Z,3.70
2018-11-11T13:23:41.939Z,3.90
2018-11-11T13:26:10.084Z,3.20
2018-11-11T13:28:38.177Z,4.17
2018-11-11T13:31:06.640Z,3.17
2018-11-11T13:33:34.855Z,3.67
2018-11-11T13:36:02.964Z,3.50
2018-11-11T13:38:31.064Z,3.60
2018-11-11T13:40:59.233Z,3.90
2018-11-11T13:43:27.409Z,3.77
2018-11-11T13:45:55.567Z,3.87
2018-11-11T13:48:23.795Z,3.40
2018-11-11T13:50:51.911Z,3.47
2018-11-11T13:53:20.031Z,3.77
2018-11-11T13:55:48.178Z,3.43
2018-11-11T13:58:16.347Z,3.37
2018-11-11T14:00:44.708Z,3.17
2018-11-11T14:03:12.808Z,3.43
2018-11-11T14:05:41.242Z,3.47
2018-11-11T14:08:09.372Z,3.60
2018-11-11T14:10:37.528Z,3.00
2018-11-11T14:13:05.691Z,3.17
2018-11-11T14:15:33.804Z,3.50
2018-11-11T14:18:02.024Z,3.20
2018-11-11T14:20:30.098Z,3.93
2018-11-11T14:22:58.317Z,3.23
2018-11-11T14:25:28.156Z,3.40
2018-11-11T14:27:56.287Z,3.23
2018-11-11T14:30:25.733Z,3.33
2018-11-11T14:32:54.895Z,2.63
2018-11-11T14:35:23.048Z,2.90
2018-11-11T14:37:51.536Z,2.90
2018-11-11T14:40:22.057Z,3.00
2018-11-11T14:42:50.173Z,2.77
2018-11-11T14:45:19.116Z,2.80
2018-11-11T14:47:48.570Z,2.70
2018-11-11T14:50:17.543Z,2.73
2018-11-11T14:52:46.344Z,3.37
2018-11-11T14:55:17.280Z,2.50
2018-11-11T14:57:45.356Z,2.80
2018-11-11T15:00:16.387Z,2.87
2018-11-11T15:02:46.565Z,2.87
2018-11-11T15:05:14.726Z,2.93
2018-11-11T15:07:43.431Z,2.63
2018-11-11T15:10:12.647Z,2.83
2018-11-11T15:12:41.122Z,2.30
2018-11-11T15:15:10.952Z,2.53
2018-11-11T15:17:39.101Z,2.27
2018-11-11T15:20:08.042Z,2.37
2018-11-11T15:22:36.086Z,2.20
2018-11-11T15:25:04.609Z,2.07
2018-11-11T15:27:32.807Z,2.23
2018-11-11T15:30:00.989Z,2.77
2018-11-11T15:32:29.103Z,2.50
2018-11-11T15:34:57.505Z,2.57
2018-11-11T15:37:25.801Z,2.70
2018-11-11T15:39:53.940Z,3.20
2018-11-11T15:42:22.193Z,3.17
2018-11-11T15:44:50.303Z,2.90
2018-11-11T15:47:18.412Z,2.83
2018-11-11T15:49:46.596Z,2.67
2018-11-11T15:52:14.821Z,2.93
2018-11-11T15:54:42.898Z,2.67
2018-11-11T15:57:11.286Z,2.63
2018-11-11T15:59:39.383Z,2.90
2018-11-11T16:02:07.535Z,2.40
2018-11-11T16:04:35.696Z,2.90
2018-11-11T16:07:03.798Z,2.40
2018-11-11T16:09:32.067Z,2.60
2018-11-11T16:12:00.211Z,3.30
2018-11-11T16:14:28.336Z,2.73
2018-11-11T16:16:56.467Z,2.80
2018-11-11T16:19:24.619Z,2.97
2018-11-11T16:21:52.768Z,3.00
2018-11-11T16:24:21.004Z,2.30
2018-11-11T16:26:49.977Z,2.80
2018-11-11T16:29:19.049Z,2.93
2018-11-11T16:31:50.576Z,2.40
2018-11-11T16:34:18.717Z,2.50
2018-11-11T16:36:47.392Z,2.50
2018-11-11T16:39:15.606Z,2.70
2018-11-11T16:41:46.244Z,2.40
2018-11-11T16:44:15.112Z,3.13
2018-11-11T16:46:43.574Z,2.70
2018-11-11T16:49:14.037Z,2.90
2018-11-11T16:51:44.579Z,2.77
2018-11-11T16:54:12.977Z,2.77
2018-11-11T16:56:41.504Z,2.87
2018-11-11T16:59:10.043Z,3.03
2018-11-11T17:01:38.239Z,2.80
2018-11-11T17:04:07.297Z,3.10
2018-11-11T17:06:36.258Z,2.83
2018-11-11T17:09:08.346Z,3.37
2018-11-11T17:11:36.866Z,3.40
2018-11-11T17:14:05.224Z,2.67
2018-11-11T17:16:34.833Z,3.03
2018-11-11T17:19:03.856Z,3.23
2018-11-11T17:21:32.109Z,3.37
2018-11-11T17:24:02.683Z,3.33
2018-11-11T17:26:31.301Z,3.20
2018-11-11T17:29:00.681Z,3.07
2018-11-11T17:31:28.778Z,3.13
2018-11-11T17:33:56.876Z,3.60
2018-11-11T17:36:25.019Z,3.53
2018-11-11T17:38:53.192Z,3.63
2018-11-11T17:41:21.280Z,3.27
2018-11-11T17:43:49.384Z,3.50
2018-11-11T17:46:17.566Z,2.90
2018-11-11T17:48:45.651Z,3.53
2018-11-11T17:51:13.752Z,3.30
2018-11-11T17:53:41.846Z,4.10
2018-11-11T17:56:10.003Z,3.33
2018-11-11T17:58:38.217Z,3.60
2018-11-11T18:01:06.717Z,4.07
2018-11-11T18:03:34.783Z,4.20
2018-11-11T18:06:02.901Z,3.80
2018-11-11T18:08:31.028Z,3.73
2018-11-11T18:10:59.151Z,4.43
2018-11-11T18:13:27.242Z,4.20
2018-11-11T18:15:55.401Z,4.60
2018-11-11T18:18:24.083Z,3.70
2018-11-11T18:20:52.265Z,3.83
2018-11-11T18:23:20.423Z,4.10
2018-11-11T18:25:48.529Z,4.17
2018-11-11T18:28:16.664Z,3.77
2018-11-11T18:30:44.801Z,3.57
2018-11-11T18:33:12.936Z,2.70
2018-11-11T18:35:41.051Z,3.30
2018-11-11T18:38:09.138Z,3.40
2018-11-11T18:40:37.278Z,2.80
2018-11-11T18:43:05.848Z,3.10
2018-11-11T18:45:34.018Z,2.93
2018-11-11T18:48:02.132Z,2.73
2018-11-11T18:50:31.674Z,2.80
2018-11-11T18:52:59.829Z,3.03
2018-11-11T18:55:28.007Z,3.40
2018-11-11T18:57:56.097Z,3.33
2018-11-11T19:00:26.611Z,3.30
2018-11-11T19:02:55.411Z,3.10
2018-11-11T19:05:24.396Z,3.10
2018-11-11T19:07:52.866Z,3.00
2018-11-11T19:10:23.127Z,3.40
2018-11-11T19:12:52.720Z,3.30
2018-11-11T19:15:21.400Z,3.20
2018-11-11T19:17:50.199Z,3.70
2018-11-11T19:20:19.592Z,3.80
2018-11-11T19:22:47.784Z,3.20
2018-11-11T19:25:18.323Z,3.80
2018-11-11T19:27:47.749Z,3.70
2018-11-11T19:30:16.816Z,3.47
2018-11-11T19:32:45.737Z,3.90
2018-11-11T19:35:14.670Z,3.53
2018-11-11T19:37:43.905Z,3.70
2018-11-11T19:40:14.107Z,3.67
2018-11-11T19:42:42.675Z,4.43
2018-11-11T19:45:12.219Z,3.97
2018-11-11T19:47:40.961Z,4.60
2018-11-11T19:50:10.616Z,4.30
2018-11-11T19:52:39.459Z,4.07
2018-11-11T19:55:08.256Z,4.30
2018-11-11T19:57:36.607Z,4.50
2018-11-11T20:00:06.649Z,4.07
2018-11-11T20:02:35.203Z,4.47
2018-11-11T20:05:04.331Z,4.57
2018-11-11T20:07:33.030Z,4.50
2018-11-11T20:10:01.311Z,5.30
2018-11-11T20:12:32.124Z,4.70
2018-11-11T20:15:00.411Z,5.60
2018-11-11T20:17:28.880Z,4.90
2018-11-11T20:19:57.304Z,5.60
2018-11-11T20:22:25.444Z,5.03
2018-11-11T20:24:53.637Z,5.67
2018-11-11T20:27:22.879Z,5.50
2018-11-11T20:29:53.478Z,5.73
2018-11-11T20:32:22.729Z,5.93
2018-11-11T20:34:50.891Z,5.23
2018-11-11T20:37:20.289Z,6.13
2018-11-11T20:39:52.147Z,5.83
2018-11-11T20:42:23.892Z,6.37
2018-11-11T20:44:53.852Z,5.87
2018-11-11T20:47:22.025Z,6.20
2018-11-11T20:49:51.527Z,7.43
2018-11-11T20:52:23.029Z,6.27
2018-11-11T20:54:51.163Z,6.23
2018-11-11T20:57:19.319Z,7.23
2018-11-11T20:59:47.506Z,7.13
2018-11-11T21:02:15.620Z,6.83
2018-11-11T21:04:43.776Z,6.60
2018-11-11T21:07:11.930Z,6.40
2018-11-11T21:09:40.136Z,6.83
2018-11-11T21:12:08.256Z,7.07
2018-11-11T21:14:36.484Z,7.87
2018-11-11T21:17:04.683Z,7.70
2018-11-11T21:19:32.924Z,7.77
2018-11-11T21:22:00.952Z,7.33
2018-11-11T21:24:29.079Z,7.40
2018-11-11T21:26:57.253Z,7.57
2018-11-11T21:29:25.392Z,7.50
2018-11-11T21:31:53.551Z,8.90
2018-11-11T21:34:21.669Z,8.30
2018-11-11T21:36:49.808Z,7.70
2018-11-11T21:39:18.303Z,7.77
2018-11-11T21:41:46.452Z,7.87
2018-11-11T21:44:14.548Z,7.70
2018-11-11T21:46:42.646Z,8.53
2018-11-11T21:49:10.772Z,7.90
2018-11-11T21:51:38.887Z,7.40
2018-11-11T21:54:07.028Z,8.03
2018-11-11T21:56:35.240Z,8.10
2018-11-11T21:59:03.373Z,8.17
2018-11-11T22:01:31.533Z,8.13
2018-11-11T22:03:59.624Z,8.37
2018-11-11T22:06:27.729Z,8.70
2018-11-11T22:08:55.982Z,8.23
2018-11-11T22:11:24.025Z,7.50
2018-11-11T22:13:52.127Z,9.00
2018-11-11T22:16:20.232Z,8.07
2018-11-11T22:18:48.354Z,8.97
2018-11-11T22:21:16.551Z,8.23
2018-11-11T22:23:44.652Z,8.67
2018-11-11T22:26:12.779Z,8.47
2018-11-11T22:28:40.956Z,9.10
2018-11-11T22:31:09.079Z,9.67
2018-11-11T22:33:37.244Z,9.87
2018-11-11T22:36:05.343Z,10.30
2018-11-11T22:38:33.509Z,11.10
2018-11-11T22:41:01.602Z,10.17
2018-11-11T22:43:29.732Z,10.37
2018-11-11T22:45:57.901Z,9.77
2018-11-11T22:48:26.027Z,10.93
2018-11-11T22:50:54.126Z,10.77
2018-11-11T22:53:22.291Z,10.87
2018-11-11T22:55:50.395Z,10.50
2018-11-11T22:58:18.551Z,11.13
2018-11-11T23:00:52.262Z,10.70
2018-11-11T23:16:24.784Z,11.53
2018-11-11T23:18:52.895Z,11.20
2018-11-11T23:21:21.049Z,12.13
2018-11-11T23:23:49.172Z,12.10
2018-11-11T23:26:17.310Z,11.40
2018-11-11T23:28:45.467Z,12.37
2018-11-11T23:31:13.695Z,12.30
2018-11-11T23:33:41.823Z,12.23
2018-11-11T23:36:10.009Z,11.80
2018-11-11T23:38:38.160Z,12.77
2018-11-11T23:41:06.291Z,13.20
2018-11-11T23:43:34.423Z,13.70
2018-11-11T23:46:02.611Z,13.23
2018-11-11T23:48:30.757Z,14.60
2018-11-11T23:50:58.857Z,13.53
2018-11-11T23:53:26.968Z,13.70
2018-11-11T23:55:55.089Z,13.53
2018-11-11T23:58:23.272Z,13.20
